Leader, Canada
Current Conditions -  °F | °C
As of 6:00 AM on Sunday 21 Dec 2014 (Local Time) from CYKY Reporting Station
Clear Clear  
Wind Chill:   Ceiling: Unl
Heat Index: 16°   Visibility: 15mi
Dew Point: 12°   Wind: 7mph
Humidity: 86%   Direction: 100°E
Pressure: 29.32"   Gusts: NA
Location:  50.89°N, 109.54°W
Report Text: CYKY 211200Z 10006KT 15SM SKC M09/M11 A2932 RMK SLP967
Loading
Personal Weather Stations






























Interactive Weather Map New forecast layout! Learn more

10-Day Weather Forecast

Advertisements
Track Severe Weather on mobile